KGAD/GAD METAR and TAF weather

Enter ICAO airport designator
Station Type Date Time Source
KGAD METAR 2019/12/09 05:56 UTC NOAA

KGAD 090556Z AUTO VRB05KT 10SM OVC027 13/07 A3008 RMK AO2 SLP189 60000 T01330067 10144 20133 401670072 57009


Station Type Date Time Source
KGAD Decoded METAR 2019/12/09 05:56 UTC NOAA

Gadsden, Gadsden Municipal Airport, AL, United States (KGAD) 33-58N 086-05W
Dec 09, 2019 - 12:56 AM EST / 2019.12.09 0556 UTC
Wind: Variable at 6 MPH (5 KT):0
Visibility: 10 mile(s):0
Sky conditions: overcast
Temperature: 55.9 F (13.3 C)
Dew Point: 44.1 F (6.7 C)
Relative Humidity: 64%
Pressure (altimeter): 30.08 in. Hg (1018 hPa)
Pressure tendency: 0.03 inches (0.9 hPa) lower than three hours ago
ob: KGAD 090556Z AUTO VRB05KT 10SM OVC027 13/07 A3008 RMK AO2 SLP189 60000 T01330067 10144 20133 401670072 57009
cycle: 6

Station Type Date Time Source
KGAD TAF UTC NOAA

Error!

Example: see airport list